sensor_id;sensor_type;location;lat;lon;timestamp;P1;durP1;ratioP1;P2;durP2;ratioP2
26413;SDS011;14108;53.668;10.288;2022-10-16T00:01:48;9.88;;;5.32;;
26413;SDS011;14108;53.668;10.288;2022-10-16T00:04:15;7.32;;;5.10;;
26413;SDS011;14108;53.668;10.288;2022-10-16T00:06:42;6.12;;;4.90;;
26413;SDS011;14108;53.668;10.288;2022-10-16T00:09:10;6.28;;;4.80;;
26413;SDS011;14108;53.668;10.288;2022-10-16T00:11:37;8.45;;;5.53;;
26413;SDS011;14108;53.668;10.288;2022-10-16T00:14:05;6.75;;;4.85;;
26413;SDS011;14108;53.668;10.288;2022-10-16T00:16:33;8.25;;;4.85;;
26413;SDS011;14108;53.668;10.288;2022-10-16T00:19:00;8.68;;;5.43;;
26413;SDS011;14108;53.668;10.288;2022-10-16T00:21:28;6.25;;;4.75;;
26413;SDS011;14108;53.668;10.288;2022-10-16T00:23:56;6.80;;;4.93;;
26413;SDS011;14108;53.668;10.288;2022-10-16T00:26:25;7.87;;;5.75;;
26413;SDS011;14108;53.668;10.288;2022-10-16T00:28:53;6.87;;;5.22;;
26413;SDS011;14108;53.668;10.288;2022-10-16T00:31:21;8.75;;;5.40;;
26413;SDS011;14108;53.668;10.288;2022-10-16T00:33:48;8.20;;;5.90;;
26413;SDS011;14108;53.668;10.288;2022-10-16T00:36:16;10.90;;;7.05;;
26413;SDS011;14108;53.668;10.288;2022-10-16T00:38:44;8.70;;;5.93;;
26413;SDS011;14108;53.668;10.288;2022-10-16T00:41:12;10.77;;;6.90;;
26413;SDS011;14108;53.668;10.288;2022-10-16T00:43:40;9.57;;;5.80;;
26413;SDS011;14108;53.668;10.288;2022-10-16T00:46:10;8.40;;;6.57;;
26413;SDS011;14108;53.668;10.288;2022-10-16T00:48:38;9.32;;;6.85;;
26413;SDS011;14108;53.668;10.288;2022-10-16T00:51:05;8.60;;;6.30;;
26413;SDS011;14108;53.668;10.288;2022-10-16T00:53:33;13.55;;;6.20;;
26413;SDS011;14108;53.668;10.288;2022-10-16T00:56:00;18.20;;;7.32;;
26413;SDS011;14108;53.668;10.288;2022-10-16T00:58:27;8.45;;;6.18;;
26413;SDS011;14108;53.668;10.288;2022-10-16T01:00:54;10.38;;;6.32;;
26413;SDS011;14108;53.668;10.288;2022-10-16T01:03:23;8.90;;;6.12;;
26413;SDS011;14108;53.668;10.288;2022-10-16T01:05:51;7.72;;;5.65;;
26413;SDS011;14108;53.668;10.288;2022-10-16T01:08:21;8.25;;;6.35;;
26413;SDS011;14108;53.668;10.288;2022-10-16T01:10:54;7.05;;;5.57;;
26413;SDS011;14108;53.668;10.288;2022-10-16T01:13:24;8.40;;;5.93;;
26413;SDS011;14108;53.668;10.288;2022-10-16T01:15:54;6.55;;;5.15;;
26413;SDS011;14108;53.668;10.288;2022-10-16T01:18:24;6.97;;;5.03;;
26413;SDS011;14108;53.668;10.288;2022-10-16T01:20:54;7.93;;;5.03;;
26413;SDS011;14108;53.668;10.288;2022-10-16T01:23:30;10.48;;;5.47;;
26413;SDS011;14108;53.668;10.288;2022-10-16T01:26:10;10.85;;;5.40;;
26413;SDS011;14108;53.668;10.288;2022-10-16T01:28:41;7.47;;;4.93;;
26413;SDS011;14108;53.668;10.288;2022-10-16T01:31:12;8.32;;;4.57;;
26413;SDS011;14108;53.668;10.288;2022-10-16T01:33:42;7.45;;;5.28;;
26413;SDS011;14108;53.668;10.288;2022-10-16T01:36:11;8.90;;;5.18;;
26413;SDS011;14108;53.668;10.288;2022-10-16T01:38:40;8.77;;;5.53;;
26413;SDS011;14108;53.668;10.288;2022-10-16T01:41:09;7.15;;;4.82;;
26413;SDS011;14108;53.668;10.288;2022-10-16T01:46:13;7.80;;;5.12;;
26413;SDS011;14108;53.668;10.288;2022-10-16T01:48:41;7.82;;;4.97;;
26413;SDS011;14108;53.668;10.288;2022-10-16T01:51:08;6.50;;;4.47;;
26413;SDS011;14108;53.668;10.288;2022-10-16T01:53:36;6.30;;;4.90;;
26413;SDS011;14108;53.668;10.288;2022-10-16T01:56:03;8.57;;;5.50;;
26413;SDS011;14108;53.668;10.288;2022-10-16T01:58:33;6.70;;;4.95;;
26413;SDS011;14108;53.668;10.288;2022-10-16T02:01:01;5.95;;;5.00;;
26413;SDS011;14108;53.668;10.288;2022-10-16T02:03:29;5.97;;;4.60;;
26413;SDS011;14108;53.668;10.288;2022-10-16T02:05:56;7.30;;;4.43;;
26413;SDS011;14108;53.668;10.288;2022-10-16T02:08:24;6.68;;;4.70;;
26413;SDS011;14108;53.668;10.288;2022-10-16T02:10:54;8.30;;;4.37;;
26413;SDS011;14108;53.668;10.288;2022-10-16T02:13:22;7.25;;;4.75;;
26413;SDS011;14108;53.668;10.288;2022-10-16T02:15:50;6.22;;;3.87;;
26413;SDS011;14108;53.668;10.288;2022-10-16T02:18:17;6.78;;;3.83;;
26413;SDS011;14108;53.668;10.288;2022-10-16T02:20:46;7.57;;;4.30;;
26413;SDS011;14108;53.668;10.288;2022-10-16T02:23:17;7.00;;;4.07;;
26413;SDS011;14108;53.668;10.288;2022-10-16T02:25:46;7.47;;;3.78;;
26413;SDS011;14108;53.668;10.288;2022-10-16T02:28:14;7.32;;;3.50;;
26413;SDS011;14108;53.668;10.288;2022-10-16T02:30:43;6.55;;;3.80;;
26413;SDS011;14108;53.668;10.288;2022-10-16T02:33:12;9.27;;;4.43;;
26413;SDS011;14108;53.668;10.288;2022-10-16T02:35:39;4.97;;;3.60;;
26413;SDS011;14108;53.668;10.288;2022-10-16T02:38:07;5.12;;;3.37;;
26413;SDS011;14108;53.668;10.288;2022-10-16T02:40:34;5.05;;;3.37;;
26413;SDS011;14108;53.668;10.288;2022-10-16T02:43:02;4.90;;;3.60;;
26413;SDS011;14108;53.668;10.288;2022-10-16T02:45:30;4.57;;;3.03;;
26413;SDS011;14108;53.668;10.288;2022-10-16T02:47:57;8.02;;;4.18;;
26413;SDS011;14108;53.668;10.288;2022-10-16T02:50:24;6.03;;;3.65;;
26413;SDS011;14108;53.668;10.288;2022-10-16T02:52:51;6.25;;;3.25;;
26413;SDS011;14108;53.668;10.288;2022-10-16T02:55:18;5.75;;;3.30;;
26413;SDS011;14108;53.668;10.288;2022-10-16T02:57:45;4.50;;;2.95;;
26413;SDS011;14108;53.668;10.288;2022-10-16T03:00:13;6.87;;;2.87;;
26413;SDS011;14108;53.668;10.288;2022-10-16T03:02:40;5.90;;;3.15;;
26413;SDS011;14108;53.668;10.288;2022-10-16T03:05:08;4.57;;;2.87;;
26413;SDS011;14108;53.668;10.288;2022-10-16T03:07:36;7.03;;;2.80;;
26413;SDS011;14108;53.668;10.288;2022-10-16T03:10:03;5.20;;;2.17;;
26413;SDS011;14108;53.668;10.288;2022-10-16T03:12:30;4.25;;;2.42;;
26413;SDS011;14108;53.668;10.288;2022-10-16T03:14:57;4.68;;;2.62;;
26413;SDS011;14108;53.668;10.288;2022-10-16T03:17:25;7.22;;;2.50;;
26413;SDS011;14108;53.668;10.288;2022-10-16T03:19:52;6.15;;;2.30;;
26413;SDS011;14108;53.668;10.288;2022-10-16T03:22:19;6.78;;;2.87;;
26413;SDS011;14108;53.668;10.288;2022-10-16T03:24:46;5.10;;;2.17;;
26413;SDS011;14108;53.668;10.288;2022-10-16T03:27:13;4.05;;;2.42;;
26413;SDS011;14108;53.668;10.288;2022-10-16T03:29:40;4.22;;;2.28;;
26413;SDS011;14108;53.668;10.288;2022-10-16T03:32:07;3.25;;;1.92;;
26413;SDS011;14108;53.668;10.288;2022-10-16T03:34:34;2.15;;;1.70;;
26413;SDS011;14108;53.668;10.288;2022-10-16T03:37:01;5.65;;;1.98;;
26413;SDS011;14108;53.668;10.288;2022-10-16T03:39:28;4.07;;;2.35;;
26413;SDS011;14108;53.668;10.288;2022-10-16T03:41:55;5.32;;;2.67;;
26413;SDS011;14108;53.668;10.288;2022-10-16T03:44:22;4.12;;;2.00;;
26413;SDS011;14108;53.668;10.288;2022-10-16T03:46:49;3.50;;;1.90;;
26413;SDS011;14108;53.668;10.288;2022-10-16T03:49:16;2.62;;;2.10;;
26413;SDS011;14108;53.668;10.288;2022-10-16T03:51:43;3.62;;;1.90;;
26413;SDS011;14108;53.668;10.288;2022-10-16T03:54:10;3.83;;;1.98;;
26413;SDS011;14108;53.668;10.288;2022-10-16T03:56:37;4.62;;;2.33;;
26413;SDS011;14108;53.668;10.288;2022-10-16T03:59:04;4.72;;;2.10;;
26413;SDS011;14108;53.668;10.288;2022-10-16T04:01:31;2.90;;;2.05;;
26413;SDS011;14108;53.668;10.288;2022-10-16T04:03:58;2.97;;;2.20;;
26413;SDS011;14108;53.668;10.288;2022-10-16T04:06:25;5.32;;;2.33;;
26413;SDS011;14108;53.668;10.288;2022-10-16T04:08:52;4.90;;;2.53;;
26413;SDS011;14108;53.668;10.288;2022-10-16T04:11:19;5.30;;;1.95;;
26413;SDS011;14108;53.668;10.288;2022-10-16T04:13:46;3.45;;;2.33;;
26413;SDS011;14108;53.668;10.288;2022-10-16T04:16:13;3.55;;;2.30;;
26413;SDS011;14108;53.668;10.288;2022-10-16T04:18:40;7.62;;;2.10;;
26413;SDS011;14108;53.668;10.288;2022-10-16T04:21:07;4.05;;;1.83;;
26413;SDS011;14108;53.668;10.288;2022-10-16T04:23:34;4.82;;;2.40;;
26413;SDS011;14108;53.668;10.288;2022-10-16T04:26:01;7.30;;;2.20;;
26413;SDS011;14108;53.668;10.288;2022-10-16T04:28:28;4.68;;;2.15;;
26413;SDS011;14108;53.668;10.288;2022-10-16T04:30:55;4.25;;;2.12;;
26413;SDS011;14108;53.668;10.288;2022-10-16T04:33:22;9.35;;;2.10;;
26413;SDS011;14108;53.668;10.288;2022-10-16T04:35:55;4.60;;;1.92;;
26413;SDS011;14108;53.668;10.288;2022-10-16T04:38:22;3.35;;;2.05;;
26413;SDS011;14108;53.668;10.288;2022-10-16T04:40:49;2.65;;;2.00;;
26413;SDS011;14108;53.668;10.288;2022-10-16T04:43:16;2.37;;;2.00;;
26413;SDS011;14108;53.668;10.288;2022-10-16T04:45:43;5.55;;;2.05;;
26413;SDS011;14108;53.668;10.288;2022-10-16T04:48:10;4.40;;;2.30;;
26413;SDS011;14108;53.668;10.288;2022-10-16T04:50:37;4.00;;;1.87;;
26413;SDS011;14108;53.668;10.288;2022-10-16T04:53:04;4.45;;;1.65;;
26413;SDS011;14108;53.668;10.288;2022-10-16T04:55:31;4.00;;;1.98;;
26413;SDS011;14108;53.668;10.288;2022-10-16T04:57:58;4.80;;;2.15;;
26413;SDS011;14108;53.668;10.288;2022-10-16T05:00:26;4.30;;;2.10;;
26413;SDS011;14108;53.668;10.288;2022-10-16T05:02:53;6.55;;;2.20;;
26413;SDS011;14108;53.668;10.288;2022-10-16T05:05:20;4.18;;;1.80;;
26413;SDS011;14108;53.668;10.288;2022-10-16T05:07:48;4.30;;;2.22;;
26413;SDS011;14108;53.668;10.288;2022-10-16T05:10:15;2.97;;;1.67;;
26413;SDS011;14108;53.668;10.288;2022-10-16T05:12:42;4.15;;;2.28;;
26413;SDS011;14108;53.668;10.288;2022-10-16T05:15:10;6.90;;;2.33;;
26413;SDS011;14108;53.668;10.288;2022-10-16T05:17:37;6.53;;;2.37;;
26413;SDS011;14108;53.668;10.288;2022-10-16T05:20:05;5.18;;;1.98;;
26413;SDS011;14108;53.668;10.288;2022-10-16T05:22:32;4.12;;;2.35;;
26413;SDS011;14108;53.668;10.288;2022-10-16T05:24:59;7.95;;;2.45;;
26413;SDS011;14108;53.668;10.288;2022-10-16T05:27:26;8.48;;;2.37;;
26413;SDS011;14108;53.668;10.288;2022-10-16T05:29:53;4.78;;;2.33;;
26413;SDS011;14108;53.668;10.288;2022-10-16T05:32:20;5.90;;;2.10;;
26413;SDS011;14108;53.668;10.288;2022-10-16T05:34:47;2.78;;;2.10;;
26413;SDS011;14108;53.668;10.288;2022-10-16T05:37:14;3.72;;;2.20;;
26413;SDS011;14108;53.668;10.288;2022-10-16T05:39:41;4.22;;;2.50;;
26413;SDS011;14108;53.668;10.288;2022-10-16T05:42:08;5.97;;;2.60;;
26413;SDS011;14108;53.668;10.288;2022-10-16T05:44:35;5.78;;;2.15;;
26413;SDS011;14108;53.668;10.288;2022-10-16T05:47:02;3.85;;;2.35;;
26413;SDS011;14108;53.668;10.288;2022-10-16T05:49:29;5.43;;;2.15;;
26413;SDS011;14108;53.668;10.288;2022-10-16T05:51:56;4.72;;;1.90;;
26413;SDS011;14108;53.668;10.288;2022-10-16T05:54:23;4.22;;;2.30;;
26413;SDS011;14108;53.668;10.288;2022-10-16T05:56:50;7.60;;;3.03;;
26413;SDS011;14108;53.668;10.288;2022-10-16T05:59:17;6.87;;;3.90;;
26413;SDS011;14108;53.668;10.288;2022-10-16T06:01:44;153.52;;;24.23;;
26413;SDS011;14108;53.668;10.288;2022-10-16T06:04:11;18.75;;;5.70;;
26413;SDS011;14108;53.668;10.288;2022-10-16T06:06:38;23.00;;;7.87;;
26413;SDS011;14108;53.668;10.288;2022-10-16T06:09:05;37.72;;;8.63;;
26413;SDS011;14108;53.668;10.288;2022-10-16T06:11:32;63.50;;;13.62;;
26413;SDS011;14108;53.668;10.288;2022-10-16T06:14:00;54.92;;;12.48;;
26413;SDS011;14108;53.668;10.288;2022-10-16T06:16:32;39.42;;;9.68;;
26413;SDS011;14108;53.668;10.288;2022-10-16T06:18:59;39.40;;;8.50;;
26413;SDS011;14108;53.668;10.288;2022-10-16T06:21:26;40.47;;;9.35;;
26413;SDS011;14108;53.668;10.288;2022-10-16T06:23:54;12.88;;;3.65;;
26413;SDS011;14108;53.668;10.288;2022-10-16T06:26:22;13.57;;;4.15;;
26413;SDS011;14108;53.668;10.288;2022-10-16T06:28:50;12.40;;;3.87;;
26413;SDS011;14108;53.668;10.288;2022-10-16T06:31:17;6.85;;;2.83;;
26413;SDS011;14108;53.668;10.288;2022-10-16T06:33:44;7.53;;;3.25;;
26413;SDS011;14108;53.668;10.288;2022-10-16T06:36:13;9.70;;;3.28;;
26413;SDS011;14108;53.668;10.288;2022-10-16T06:38:40;20.73;;;4.95;;
26413;SDS011;14108;53.668;10.288;2022-10-16T06:41:08;14.50;;;4.47;;
26413;SDS011;14108;53.668;10.288;2022-10-16T06:43:36;10.50;;;3.47;;
26413;SDS011;14108;53.668;10.288;2022-10-16T06:46:03;20.85;;;3.05;;
26413;SDS011;14108;53.668;10.288;2022-10-16T06:48:33;10.73;;;3.95;;
26413;SDS011;14108;53.668;10.288;2022-10-16T06:51:01;22.37;;;4.82;;
26413;SDS011;14108;53.668;10.288;2022-10-16T06:53:31;14.40;;;3.25;;
26413;SDS011;14108;53.668;10.288;2022-10-16T06:56:01;8.65;;;2.65;;
26413;SDS011;14108;53.668;10.288;2022-10-16T06:58:32;6.95;;;3.22;;
26413;SDS011;14108;53.668;10.288;2022-10-16T07:00:59;19.70;;;6.45;;
26413;SDS011;14108;53.668;10.288;2022-10-16T07:03:26;8.80;;;2.72;;
26413;SDS011;14108;53.668;10.288;2022-10-16T07:05:53;5.60;;;1.90;;
26413;SDS011;14108;53.668;10.288;2022-10-16T07:08:21;7.85;;;2.85;;
26413;SDS011;14108;53.668;10.288;2022-10-16T07:10:49;2.95;;;1.92;;
26413;SDS011;14108;53.668;10.288;2022-10-16T07:13:24;3.92;;;1.90;;
26413;SDS011;14108;53.668;10.288;2022-10-16T07:15:51;5.15;;;2.62;;
26413;SDS011;14108;53.668;10.288;2022-10-16T07:18:18;7.35;;;2.90;;
26413;SDS011;14108;53.668;10.288;2022-10-16T07:20:45;4.15;;;1.90;;
26413;SDS011;14108;53.668;10.288;2022-10-16T07:23:12;8.27;;;2.35;;
26413;SDS011;14108;53.668;10.288;2022-10-16T07:25:39;3.53;;;2.20;;
26413;SDS011;14108;53.668;10.288;2022-10-16T07:28:06;7.90;;;2.80;;
26413;SDS011;14108;53.668;10.288;2022-10-16T07:30:35;3.58;;;2.50;;
26413;SDS011;14108;53.668;10.288;2022-10-16T07:33:03;3.12;;;2.15;;
26413;SDS011;14108;53.668;10.288;2022-10-16T07:35:30;3.62;;;2.53;;
26413;SDS011;14108;53.668;10.288;2022-10-16T07:37:57;4.32;;;2.30;;
26413;SDS011;14108;53.668;10.288;2022-10-16T07:40:24;4.75;;;2.78;;
26413;SDS011;14108;53.668;10.288;2022-10-16T07:42:52;5.45;;;2.28;;
26413;SDS011;14108;53.668;10.288;2022-10-16T07:45:19;4.18;;;2.60;;
26413;SDS011;14108;53.668;10.288;2022-10-16T07:47:46;4.37;;;3.22;;
26413;SDS011;14108;53.668;10.288;2022-10-16T07:50:13;5.40;;;2.70;;
26413;SDS011;14108;53.668;10.288;2022-10-16T07:52:40;5.70;;;2.58;;
26413;SDS011;14108;53.668;10.288;2022-10-16T07:55:08;7.10;;;2.62;;
26413;SDS011;14108;53.668;10.288;2022-10-16T07:57:35;6.60;;;3.08;;
26413;SDS011;14108;53.668;10.288;2022-10-16T08:00:02;6.20;;;2.70;;
26413;SDS011;14108;53.668;10.288;2022-10-16T08:02:29;9.20;;;2.95;;
26413;SDS011;14108;53.668;10.288;2022-10-16T08:04:57;11.95;;;3.25;;
26413;SDS011;14108;53.668;10.288;2022-10-16T08:07:25;7.37;;;3.10;;
26413;SDS011;14108;53.668;10.288;2022-10-16T08:09:52;5.43;;;2.65;;
26413;SDS011;14108;53.668;10.288;2022-10-16T08:12:19;6.10;;;2.42;;
26413;SDS011;14108;53.668;10.288;2022-10-16T08:14:46;10.23;;;3.10;;
26413;SDS011;14108;53.668;10.288;2022-10-16T08:17:14;12.40;;;3.42;;
26413;SDS011;14108;53.668;10.288;2022-10-16T08:19:44;5.40;;;2.50;;
26413;SDS011;14108;53.668;10.288;2022-10-16T08:22:11;5.03;;;2.65;;
26413;SDS011;14108;53.668;10.288;2022-10-16T08:24:38;5.72;;;2.67;;
26413;SDS011;14108;53.668;10.288;2022-10-16T08:27:05;4.65;;;2.97;;
26413;SDS011;14108;53.668;10.288;2022-10-16T08:29:32;4.25;;;2.55;;
26413;SDS011;14108;53.668;10.288;2022-10-16T08:31:59;4.03;;;2.47;;
26413;SDS011;14108;53.668;10.288;2022-10-16T08:34:26;5.35;;;2.55;;
26413;SDS011;14108;53.668;10.288;2022-10-16T08:36:53;4.25;;;2.90;;
26413;SDS011;14108;53.668;10.288;2022-10-16T08:39:20;4.50;;;2.58;;
26413;SDS011;14108;53.668;10.288;2022-10-16T08:41:53;3.90;;;2.78;;
26413;SDS011;14108;53.668;10.288;2022-10-16T08:44:30;7.40;;;2.40;;
26413;SDS011;14108;53.668;10.288;2022-10-16T08:47:00;3.83;;;2.17;;
26413;SDS011;14108;53.668;10.288;2022-10-16T08:49:28;3.85;;;2.45;;
26413;SDS011;14108;53.668;10.288;2022-10-16T08:51:56;3.22;;;2.20;;
26413;SDS011;14108;53.668;10.288;2022-10-16T08:54:26;2.75;;;2.12;;
26413;SDS011;14108;53.668;10.288;2022-10-16T08:56:55;9.82;;;3.45;;
26413;SDS011;14108;53.668;10.288;2022-10-16T08:59:22;3.53;;;2.28;;
26413;SDS011;14108;53.668;10.288;2022-10-16T09:04:39;4.50;;;2.37;;
26413;SDS011;14108;53.668;10.288;2022-10-16T09:07:12;6.32;;;2.53;;
26413;SDS011;14108;53.668;10.288;2022-10-16T09:09:53;2.87;;;1.98;;
26413;SDS011;14108;53.668;10.288;2022-10-16T09:12:25;3.95;;;2.10;;
26413;SDS011;14108;53.668;10.288;2022-10-16T09:14:58;3.75;;;1.77;;
26413;SDS011;14108;53.668;10.288;2022-10-16T09:17:32;3.83;;;1.90;;
26413;SDS011;14108;53.668;10.288;2022-10-16T09:22:39;3.10;;;1.85;;
26413;SDS011;14108;53.668;10.288;2022-10-16T09:25:10;4.05;;;2.22;;
26413;SDS011;14108;53.668;10.288;2022-10-16T09:27:38;3.50;;;2.00;;
26413;SDS011;14108;53.668;10.288;2022-10-16T09:30:11;4.50;;;1.95;;
26413;SDS011;14108;53.668;10.288;2022-10-16T09:32:38;3.40;;;1.42;;
26413;SDS011;14108;53.668;10.288;2022-10-16T09:35:09;3.05;;;1.70;;
26413;SDS011;14108;53.668;10.288;2022-10-16T09:37:38;2.22;;;1.33;;
26413;SDS011;14108;53.668;10.288;2022-10-16T09:40:11;2.97;;;1.70;;
26413;SDS011;14108;53.668;10.288;2022-10-16T09:42:39;3.03;;;1.47;;
26413;SDS011;14108;53.668;10.288;2022-10-16T09:45:19;4.57;;;1.52;;
26413;SDS011;14108;53.668;10.288;2022-10-16T09:47:47;4.03;;;1.50;;
26413;SDS011;14108;53.668;10.288;2022-10-16T09:50:20;2.97;;;1.62;;
26413;SDS011;14108;53.668;10.288;2022-10-16T09:52:48;6.60;;;1.60;;
26413;SDS011;14108;53.668;10.288;2022-10-16T09:55:16;3.47;;;1.55;;
26413;SDS011;14108;53.668;10.288;2022-10-16T09:57:49;4.10;;;1.30;;
26413;SDS011;14108;53.668;10.288;2022-10-16T10:00:16;3.20;;;1.25;;
26413;SDS011;14108;53.668;10.288;2022-10-16T10:02:43;2.87;;;1.17;;
26413;SDS011;14108;53.668;10.288;2022-10-16T10:05:17;4.15;;;1.25;;
26413;SDS011;14108;53.668;10.288;2022-10-16T10:07:52;3.55;;;1.37;;
26413;SDS011;14108;53.668;10.288;2022-10-16T10:10:23;2.67;;;1.30;;
26413;SDS011;14108;53.668;10.288;2022-10-16T10:12:50;3.00;;;1.35;;
26413;SDS011;14108;53.668;10.288;2022-10-16T10:15:17;4.15;;;1.48;;
26413;SDS011;14108;53.668;10.288;2022-10-16T10:17:47;4.18;;;1.50;;
26413;SDS011;14108;53.668;10.288;2022-10-16T10:20:22;2.47;;;1.10;;
26413;SDS011;14108;53.668;10.288;2022-10-16T10:22:50;2.58;;;1.45;;
26413;SDS011;14108;53.668;10.288;2022-10-16T10:25:23;3.83;;;1.27;;
26413;SDS011;14108;53.668;10.288;2022-10-16T10:27:59;4.10;;;1.40;;
26413;SDS011;14108;53.668;10.288;2022-10-16T10:30:32;3.42;;;1.00;;
26413;SDS011;14108;53.668;10.288;2022-10-16T10:33:07;2.83;;;1.10;;
26413;SDS011;14108;53.668;10.288;2022-10-16T10:35:39;5.30;;;1.37;;
26413;SDS011;14108;53.668;10.288;2022-10-16T10:38:13;4.25;;;1.90;;
26413;SDS011;14108;53.668;10.288;2022-10-16T10:40:45;2.40;;;1.10;;
26413;SDS011;14108;53.668;10.288;2022-10-16T10:43:18;4.70;;;2.25;;
26413;SDS011;14108;53.668;10.288;2022-10-16T10:45:46;2.12;;;0.90;;
26413;SDS011;14108;53.668;10.288;2022-10-16T10:50:52;5.97;;;1.40;;
26413;SDS011;14108;53.668;10.288;2022-10-16T10:53:27;2.10;;;1.20;;
26413;SDS011;14108;53.668;10.288;2022-10-16T10:56:00;6.18;;;1.62;;
26413;SDS011;14108;53.668;10.288;2022-10-16T10:58:50;6.37;;;1.50;;
26413;SDS011;14108;53.668;10.288;2022-10-16T11:01:21;3.12;;;1.40;;
26413;SDS011;14108;53.668;10.288;2022-10-16T11:03:56;2.67;;;1.20;;
26413;SDS011;14108;53.668;10.288;2022-10-16T11:06:28;3.25;;;1.00;;
26413;SDS011;14108;53.668;10.288;2022-10-16T11:08:58;3.22;;;1.10;;
26413;SDS011;14108;53.668;10.288;2022-10-16T11:11:29;3.53;;;1.20;;
26413;SDS011;14108;53.668;10.288;2022-10-16T11:13:59;4.60;;;0.98;;
26413;SDS011;14108;53.668;10.288;2022-10-16T11:16:27;2.37;;;0.90;;
26413;SDS011;14108;53.668;10.288;2022-10-16T11:18:56;4.78;;;0.90;;
26413;SDS011;14108;53.668;10.288;2022-10-16T11:21:25;2.85;;;1.10;;
26413;SDS011;14108;53.668;10.288;2022-10-16T11:23:56;3.58;;;1.23;;
26413;SDS011;14108;53.668;10.288;2022-10-16T11:26:26;5.97;;;1.25;;
26413;SDS011;14108;53.668;10.288;2022-10-16T11:28:54;2.00;;;1.60;;
26413;SDS011;14108;53.668;10.288;2022-10-16T11:31:23;3.30;;;1.17;;
26413;SDS011;14108;53.668;10.288;2022-10-16T11:33:53;2.78;;;1.15;;
26413;SDS011;14108;53.668;10.288;2022-10-16T11:36:22;3.12;;;1.17;;
26413;SDS011;14108;53.668;10.288;2022-10-16T11:38:52;3.40;;;1.10;;
26413;SDS011;14108;53.668;10.288;2022-10-16T11:41:24;5.62;;;1.08;;
26413;SDS011;14108;53.668;10.288;2022-10-16T11:46:30;4.55;;;1.10;;
26413;SDS011;14108;53.668;10.288;2022-10-16T11:49:02;1.67;;;0.95;;
26413;SDS011;14108;53.668;10.288;2022-10-16T11:51:32;4.82;;;0.93;;
26413;SDS011;14108;53.668;10.288;2022-10-16T11:54:02;4.53;;;1.30;;
26413;SDS011;14108;53.668;10.288;2022-10-16T11:56:30;1.90;;;0.80;;
26413;SDS011;14108;53.668;10.288;2022-10-16T11:59:00;2.92;;;1.00;;
26413;SDS011;14108;53.668;10.288;2022-10-16T12:01:31;3.87;;;1.00;;
26413;SDS011;14108;53.668;10.288;2022-10-16T12:04:04;1.33;;;0.93;;
26413;SDS011;14108;53.668;10.288;2022-10-16T12:06:33;4.55;;;1.23;;
26413;SDS011;14108;53.668;10.288;2022-10-16T12:09:03;4.18;;;1.05;;
26413;SDS011;14108;53.668;10.288;2022-10-16T12:11:35;2.53;;;0.85;;
26413;SDS011;14108;53.668;10.288;2022-10-16T12:14:07;4.10;;;0.90;;
26413;SDS011;14108;53.668;10.288;2022-10-16T12:16:51;4.18;;;0.90;;
26413;SDS011;14108;53.668;10.288;2022-10-16T12:19:19;4.45;;;1.20;;
26413;SDS011;14108;53.668;10.288;2022-10-16T12:21:46;4.68;;;1.00;;
26413;SDS011;14108;53.668;10.288;2022-10-16T12:24:21;4.28;;;1.23;;
26413;SDS011;14108;53.668;10.288;2022-10-16T12:26:49;4.72;;;1.08;;
26413;SDS011;14108;53.668;10.288;2022-10-16T12:29:21;2.97;;;0.88;;
26413;SDS011;14108;53.668;10.288;2022-10-16T12:31:50;3.47;;;1.15;;
26413;SDS011;14108;53.668;10.288;2022-10-16T12:34:21;2.00;;;0.90;;
26413;SDS011;14108;53.668;10.288;2022-10-16T12:36:49;2.87;;;1.15;;
26413;SDS011;14108;53.668;10.288;2022-10-16T12:39:20;4.62;;;1.27;;
26413;SDS011;14108;53.668;10.288;2022-10-16T12:41:48;2.90;;;1.20;;
26413;SDS011;14108;53.668;10.288;2022-10-16T12:44:26;4.65;;;0.98;;
26413;SDS011;14108;53.668;10.288;2022-10-16T12:46:58;4.55;;;1.25;;
26413;SDS011;14108;53.668;10.288;2022-10-16T12:49:30;5.72;;;1.17;;
26413;SDS011;14108;53.668;10.288;2022-10-16T12:51:58;2.42;;;1.02;;
26413;SDS011;14108;53.668;10.288;2022-10-16T12:54:27;4.00;;;1.17;;
26413;SDS011;14108;53.668;10.288;2022-10-16T12:56:58;4.95;;;1.52;;
26413;SDS011;14108;53.668;10.288;2022-10-16T13:02:26;8.88;;;1.37;;
26413;SDS011;14108;53.668;10.288;2022-10-16T13:05:19;4.50;;;1.00;;
26413;SDS011;14108;53.668;10.288;2022-10-16T13:07:54;5.60;;;1.10;;
26413;SDS011;14108;53.668;10.288;2022-10-16T13:10:25;2.25;;;0.90;;
26413;SDS011;14108;53.668;10.288;2022-10-16T13:13:15;3.15;;;1.00;;
26413;SDS011;14108;53.668;10.288;2022-10-16T13:15:54;2.85;;;0.90;;
26413;SDS011;14108;53.668;10.288;2022-10-16T13:18:26;3.75;;;1.10;;
26413;SDS011;14108;53.668;10.288;2022-10-16T13:21:01;7.50;;;1.30;;
26413;SDS011;14108;53.668;10.288;2022-10-16T13:23:30;3.75;;;0.65;;
26413;SDS011;14108;53.668;10.288;2022-10-16T13:26:04;2.78;;;1.00;;
26413;SDS011;14108;53.668;10.288;2022-10-16T13:28:34;2.70;;;0.77;;
26413;SDS011;14108;53.668;10.288;2022-10-16T13:31:02;2.72;;;0.70;;
26413;SDS011;14108;53.668;10.288;2022-10-16T13:36:06;6.12;;;1.10;;
26413;SDS011;14108;53.668;10.288;2022-10-16T13:38:34;4.05;;;0.93;;
26413;SDS011;14108;53.668;10.288;2022-10-16T13:41:02;5.15;;;1.00;;
26413;SDS011;14108;53.668;10.288;2022-10-16T13:43:29;5.22;;;1.25;;
26413;SDS011;14108;53.668;10.288;2022-10-16T13:45:59;4.80;;;1.12;;
26413;SDS011;14108;53.668;10.288;2022-10-16T13:48:27;3.03;;;1.05;;
26413;SDS011;14108;53.668;10.288;2022-10-16T13:51:05;2.80;;;0.88;;
26413;SDS011;14108;53.668;10.288;2022-10-16T13:53:33;3.08;;;1.00;;
26413;SDS011;14108;53.668;10.288;2022-10-16T13:56:02;4.25;;;1.10;;
26413;SDS011;14108;53.668;10.288;2022-10-16T13:58:29;3.25;;;0.90;;
26413;SDS011;14108;53.668;10.288;2022-10-16T14:00:57;2.55;;;1.00;;
26413;SDS011;14108;53.668;10.288;2022-10-16T14:03:25;5.60;;;0.90;;
26413;SDS011;14108;53.668;10.288;2022-10-16T14:05:53;5.22;;;1.55;;
26413;SDS011;14108;53.668;10.288;2022-10-16T14:08:21;1.90;;;1.00;;
26413;SDS011;14108;53.668;10.288;2022-10-16T14:10:52;4.68;;;1.15;;
26413;SDS011;14108;53.668;10.288;2022-10-16T14:13:20;2.80;;;0.77;;
26413;SDS011;14108;53.668;10.288;2022-10-16T14:15:49;3.10;;;1.27;;
26413;SDS011;14108;53.668;10.288;2022-10-16T14:18:19;3.95;;;1.05;;
26413;SDS011;14108;53.668;10.288;2022-10-16T14:20:47;5.87;;;1.35;;
26413;SDS011;14108;53.668;10.288;2022-10-16T14:23:20;5.32;;;1.12;;
26413;SDS011;14108;53.668;10.288;2022-10-16T14:25:48;3.78;;;1.20;;
26413;SDS011;14108;53.668;10.288;2022-10-16T14:28:16;4.10;;;1.00;;
26413;SDS011;14108;53.668;10.288;2022-10-16T14:30:50;4.22;;;1.05;;
26413;SDS011;14108;53.668;10.288;2022-10-16T14:33:21;2.17;;;1.10;;
26413;SDS011;14108;53.668;10.288;2022-10-16T14:35:59;4.18;;;1.40;;
26413;SDS011;14108;53.668;10.288;2022-10-16T14:38:26;3.35;;;1.40;;
26413;SDS011;14108;53.668;10.288;2022-10-16T14:40:53;4.47;;;1.10;;
26413;SDS011;14108;53.668;10.288;2022-10-16T14:43:24;3.70;;;1.10;;
26413;SDS011;14108;53.668;10.288;2022-10-16T14:45:53;2.72;;;1.02;;
26413;SDS011;14108;53.668;10.288;2022-10-16T14:48:21;6.22;;;1.35;;
26413;SDS011;14108;53.668;10.288;2022-10-16T14:50:48;4.60;;;1.20;;
26413;SDS011;14108;53.668;10.288;2022-10-16T14:53:15;4.05;;;1.00;;
26413;SDS011;14108;53.668;10.288;2022-10-16T14:55:43;6.10;;;1.20;;
26413;SDS011;14108;53.668;10.288;2022-10-16T14:58:10;4.70;;;1.30;;
26413;SDS011;14108;53.668;10.288;2022-10-16T15:00:40;2.08;;;1.00;;
26413;SDS011;14108;53.668;10.288;2022-10-16T15:03:07;4.35;;;0.98;;